createdAt,value
2023-04-17T00:00:14.647Z,11.20
2023-04-17T00:02:47.096Z,11.30
2023-04-17T00:05:19.338Z,11.30
2023-04-17T00:07:49.896Z,11.30
2023-04-17T00:10:23.288Z,11.10
2023-04-17T00:12:54.172Z,11.20
2023-04-17T00:15:25.277Z,11.20
2023-04-17T00:17:56.237Z,11.30
2023-04-17T00:20:27.064Z,11.20
2023-04-17T00:22:58.266Z,11.30
2023-04-17T00:25:31.976Z,11.30
2023-04-17T00:28:03.000Z,11.30
2023-04-17T00:30:33.915Z,11.40
2023-04-17T00:33:04.718Z,11.40
2023-04-17T00:35:35.738Z,11.40
2023-04-17T00:38:08.177Z,11.40
2023-04-17T00:40:42.470Z,11.30
2023-04-17T00:43:13.322Z,11.30
2023-04-17T00:45:44.714Z,11.20
2023-04-17T00:48:18.026Z,11.30
2023-04-17T00:50:49.295Z,11.30
2023-04-17T00:53:20.713Z,11.30
2023-04-17T00:55:55.272Z,11.30
2023-04-17T00:58:26.050Z,11.30
2023-04-17T01:00:57.220Z,11.30
2023-04-17T01:03:30.074Z,11.40
2023-04-17T01:06:02.153Z,11.20
2023-04-17T01:08:39.643Z,11.10
2023-04-17T01:11:13.677Z,11.20
2023-04-17T01:13:48.976Z,11.30
2023-04-17T01:16:21.068Z,11.20
2023-04-17T01:18:52.031Z,11.20
2023-04-17T01:21:23.191Z,11.30
2023-04-17T01:23:55.062Z,11.30
2023-04-17T01:26:36.033Z,11.30
2023-04-17T01:29:07.205Z,11.30
2023-04-17T01:31:38.762Z,11.20
2023-04-17T01:34:09.290Z,11.20
2023-04-17T01:36:39.953Z,11.20
2023-04-17T01:39:11.027Z,11.30
2023-04-17T01:41:44.846Z,11.20
2023-04-17T01:44:16.568Z,11.20
2023-04-17T01:46:47.646Z,11.20
2023-04-17T01:49:19.914Z,11.20
2023-04-17T01:51:50.354Z,11.20
2023-04-17T01:54:21.569Z,11.20
2023-04-17T01:56:55.329Z,11.20
2023-04-17T01:59:26.340Z,11.30
2023-04-17T02:01:58.377Z,11.20
2023-04-17T02:04:29.397Z,11.20
2023-04-17T02:07:00.302Z,11.20
2023-04-17T02:09:31.128Z,11.20
2023-04-17T02:12:05.192Z,11.20
2023-04-17T02:14:36.146Z,11.10
2023-04-17T02:17:07.183Z,11.10
2023-04-17T02:19:38.374Z,11.10
2023-04-17T02:22:09.153Z,11.10
2023-04-17T02:24:40.089Z,11.10
2023-04-17T02:27:13.792Z,11.10
2023-04-17T02:29:47.663Z,11.20
2023-04-17T02:32:19.765Z,11.10
2023-04-17T02:34:51.712Z,11.10
2023-04-17T02:37:22.518Z,11.10
2023-04-17T02:39:53.573Z,11.10
2023-04-17T02:42:27.038Z,11.10
2023-04-17T02:44:57.782Z,11.10
2023-04-17T02:47:28.635Z,11.10
2023-04-17T02:50:00.582Z,11.10
2023-04-17T02:52:31.771Z,11.10
2023-04-17T02:55:02.479Z,11.00
2023-04-17T02:57:36.464Z,11.00
2023-04-17T03:00:14.251Z,11.00
2023-04-17T03:02:45.227Z,11.00
2023-04-17T03:05:16.270Z,11.00
2023-04-17T03:07:46.733Z,11.00
2023-04-17T03:10:17.559Z,10.90
2023-04-17T03:12:51.029Z,11.00
2023-04-17T03:15:21.418Z,11.00
2023-04-17T03:17:51.839Z,10.80
2023-04-17T03:20:22.369Z,10.90
2023-04-17T03:22:52.806Z,10.90
2023-04-17T03:25:23.336Z,10.90
2023-04-17T03:28:00.115Z,10.80
2023-04-17T03:30:35.052Z,10.80
2023-04-17T03:33:09.658Z,10.80
2023-04-17T03:35:40.014Z,10.80
2023-04-17T03:38:12.614Z,10.80
2023-04-17T03:40:43.088Z,10.80
2023-04-17T03:43:17.233Z,10.70
2023-04-17T03:45:49.199Z,10.80
2023-04-17T03:48:20.052Z,10.80
2023-04-17T03:50:52.132Z,10.70
2023-04-17T03:53:22.817Z,10.70
2023-04-17T03:55:54.910Z,10.70
2023-04-17T03:58:35.821Z,10.70
2023-04-17T04:01:11.127Z,10.80
2023-04-17T04:03:49.182Z,10.80
2023-04-17T04:06:20.836Z,10.70
2023-04-17T04:08:52.336Z,10.70
2023-04-17T04:11:23.603Z,10.80
2023-04-17T04:13:57.061Z,10.80
2023-04-17T04:16:27.933Z,10.70
2023-04-17T04:19:06.953Z,10.70
2023-04-17T04:21:37.495Z,10.80
2023-04-17T04:24:13.554Z,10.70
2023-04-17T04:26:47.614Z,10.80
2023-04-17T04:29:25.852Z,10.70
2023-04-17T04:32:02.538Z,10.70
2023-04-17T04:34:39.415Z,10.80
2023-04-17T04:37:09.909Z,10.90
2023-04-17T04:39:44.161Z,10.90
2023-04-17T04:42:22.294Z,10.90
2023-04-17T04:45:05.444Z,10.90
2023-04-17T04:47:37.307Z,10.90
2023-04-17T04:50:08.500Z,11.00
2023-04-17T04:52:40.136Z,10.90
2023-04-17T04:55:23.637Z,10.90
2023-04-17T04:57:57.823Z,10.80
2023-04-17T05:00:32.323Z,10.80
2023-04-17T05:03:04.103Z,10.80
2023-04-17T05:05:36.079Z,10.80
2023-04-17T05:08:07.626Z,10.80
2023-04-17T05:10:40.247Z,10.80
2023-04-17T05:13:12.480Z,10.90
2023-04-17T05:15:45.778Z,10.80
2023-04-17T05:18:16.194Z,10.90
2023-04-17T05:20:47.232Z,10.80
2023-04-17T05:23:17.679Z,10.90
2023-04-17T05:25:48.262Z,10.80
2023-04-17T05:28:19.086Z,10.80
2023-04-17T05:30:52.671Z,10.80
2023-04-17T05:33:31.141Z,10.80
2023-04-17T05:36:04.619Z,10.80
2023-04-17T05:38:38.624Z,10.80
2023-04-17T05:41:11.418Z,10.80
2023-04-17T05:43:42.972Z,10.70
2023-04-17T05:46:16.329Z,10.70
2023-04-17T05:48:47.078Z,10.70
2023-04-17T05:51:17.538Z,10.70
2023-04-17T05:53:48.977Z,10.70
2023-04-17T05:56:19.556Z,10.70
2023-04-17T05:58:50.109Z,10.70
2023-04-17T06:01:23.395Z,10.60
2023-04-17T06:03:57.772Z,10.70
2023-04-17T06:06:30.604Z,10.80
2023-04-17T06:09:01.848Z,10.70
2023-04-17T06:11:32.291Z,10.70
2023-04-17T06:14:02.626Z,10.80
2023-04-17T06:16:35.929Z,10.70
2023-04-17T06:19:06.444Z,10.80
2023-04-17T06:21:36.872Z,10.80
2023-04-17T06:24:07.560Z,10.80
2023-04-17T06:26:38.009Z,10.80
2023-04-17T06:29:09.135Z,10.80
2023-04-17T06:31:43.416Z,10.80
2023-04-17T06:34:14.719Z,10.80
2023-04-17T06:36:48.267Z,10.60
2023-04-17T06:39:20.319Z,10.70
2023-04-17T06:41:51.188Z,10.70
2023-04-17T06:44:29.274Z,10.70
2023-04-17T06:47:03.854Z,10.80
2023-04-17T06:49:35.066Z,10.70
2023-04-17T06:52:05.511Z,10.70
2023-04-17T06:54:35.896Z,10.70
2023-04-17T06:57:10.122Z,10.70
2023-04-17T06:59:41.038Z,10.60
2023-04-17T07:02:14.514Z,10.70
2023-04-17T07:04:45.149Z,10.80
2023-04-17T07:07:16.065Z,10.80
2023-04-17T07:09:48.402Z,10.70
2023-04-17T07:12:19.062Z,10.70
2023-04-17T07:14:49.496Z,10.70
2023-04-17T07:17:22.567Z,10.80
2023-04-17T07:19:53.097Z,10.80
2023-04-17T07:22:25.239Z,10.70
2023-04-17T07:24:57.144Z,10.80
2023-04-17T07:27:27.589Z,10.80
2023-04-17T07:29:58.032Z,10.80
2023-04-17T07:32:31.240Z,10.80
2023-04-17T07:35:01.728Z,10.70
2023-04-17T07:37:32.098Z,10.70
2023-04-17T07:40:02.491Z,10.80
2023-04-17T07:42:32.874Z,10.90
2023-04-17T07:45:03.322Z,10.90
2023-04-17T07:47:36.472Z,10.90
2023-04-17T07:50:07.631Z,10.90
2023-04-17T07:52:38.091Z,10.90
2023-04-17T07:55:08.963Z,11.00
2023-04-17T07:57:43.314Z,10.90
2023-04-17T08:00:16.598Z,10.90
2023-04-17T08:02:50.072Z,10.90
2023-04-17T08:05:20.995Z,10.80
2023-04-17T08:07:51.701Z,10.90
2023-04-17T08:10:22.277Z,10.80
2023-04-17T08:12:53.264Z,10.90
2023-04-17T08:15:24.006Z,10.90
2023-04-17T08:17:58.445Z,10.80
2023-04-17T08:20:29.606Z,10.80
2023-04-17T08:23:00.700Z,10.80
2023-04-17T08:25:31.661Z,11.00
2023-04-17T08:28:02.228Z,10.90
2023-04-17T08:30:32.873Z,10.90
2023-04-17T08:33:06.007Z,10.90
2023-04-17T08:35:36.580Z,10.80
2023-04-17T08:38:08.559Z,10.90
2023-04-17T08:40:42.346Z,11.00
2023-04-17T08:43:20.774Z,11.00
2023-04-17T08:45:54.367Z,11.00
2023-04-17T08:48:28.348Z,11.00
2023-04-17T08:50:59.005Z,11.00
2023-04-17T08:53:29.473Z,11.00
2023-04-17T08:56:08.320Z,11.10
2023-04-17T08:58:40.178Z,11.10
2023-04-17T09:01:16.040Z,11.10
2023-04-17T09:03:52.272Z,11.20
2023-04-17T09:06:22.940Z,11.10
2023-04-17T09:09:05.175Z,11.00
2023-04-17T09:11:35.746Z,11.00
2023-04-17T09:14:06.310Z,11.10
2023-04-17T09:16:36.869Z,11.10
2023-04-17T09:19:11.478Z,11.20
2023-04-17T09:21:42.191Z,11.40
2023-04-17T09:24:13.269Z,11.30
2023-04-17T09:26:43.700Z,11.30
2023-04-17T09:29:14.977Z,11.40
2023-04-17T09:31:46.556Z,11.40
2023-04-17T09:34:21.092Z,11.30
2023-04-17T09:36:57.895Z,11.20
2023-04-17T09:39:28.430Z,11.20
2023-04-17T09:42:06.483Z,11.10
2023-04-17T09:44:37.476Z,11.30
2023-04-17T09:47:09.223Z,11.30
2023-04-17T09:49:49.736Z,11.30
2023-04-17T09:52:20.451Z,11.40
2023-04-17T09:54:54.018Z,11.40
2023-04-17T09:57:24.640Z,11.30
2023-04-17T09:59:59.922Z,11.40
2023-04-17T10:02:31.733Z,11.50
2023-04-17T10:05:09.265Z,11.50
2023-04-17T10:07:40.478Z,11.50
2023-04-17T10:10:12.328Z,11.40
2023-04-17T10:12:44.108Z,11.40
2023-04-17T10:15:18.162Z,11.50
2023-04-17T10:17:50.146Z,11.60
2023-04-17T10:20:50.253Z,11.70
2023-04-17T10:23:34.706Z,11.90
2023-04-17T10:26:44.094Z,12.00
2023-04-17T10:29:14.798Z,12.00
2023-04-17T10:32:29.134Z,12.10
2023-04-17T10:35:01.076Z,12.10
2023-04-17T10:38:11.703Z,12.10
2023-04-17T10:40:47.265Z,12.00
2023-04-17T10:43:20.697Z,12.00
2023-04-17T10:46:12.872Z,12.10
2023-04-17T10:48:50.916Z,12.20
2023-04-17T10:51:43.190Z,12.10
2023-04-17T10:54:15.916Z,12.20
2023-04-17T10:56:49.624Z,12.10
2023-04-17T10:59:21.092Z,12.20
2023-04-17T11:02:05.098Z,12.40
2023-04-17T11:04:39.005Z,12.50
2023-04-17T11:07:09.641Z,12.60
2023-04-17T11:09:40.678Z,12.80
2023-04-17T11:12:15.798Z,12.80
2023-04-17T11:14:46.281Z,12.90
2023-04-17T11:17:16.935Z,13.00
2023-04-17T11:19:48.539Z,13.00
2023-04-17T11:22:20.150Z,13.00
2023-04-17T11:24:53.533Z,13.00
2023-04-17T11:27:26.526Z,13.00
2023-04-17T11:29:57.247Z,12.90
2023-04-17T11:32:27.678Z,12.90
2023-04-17T11:34:58.168Z,12.90
2023-04-17T11:37:28.598Z,13.00
2023-04-17T11:40:10.424Z,13.10
2023-04-17T11:42:47.863Z,13.20
2023-04-17T11:45:18.397Z,13.00
2023-04-17T11:47:51.210Z,13.00
2023-04-17T11:50:22.931Z,13.10
2023-04-17T11:52:53.456Z,13.10
2023-04-17T11:55:23.847Z,13.40
2023-04-17T11:57:57.733Z,13.50
2023-04-17T12:00:30.799Z,13.60
2023-04-17T12:03:02.531Z,13.70
2023-04-17T12:05:34.109Z,13.50
2023-04-17T12:08:08.755Z,13.40
2023-04-17T12:10:43.336Z,13.30
2023-04-17T12:13:16.435Z,13.10
2023-04-17T12:15:47.157Z,13.10
2023-04-17T12:18:17.900Z,13.20
2023-04-17T12:20:48.988Z,13.30
2023-04-17T12:23:19.444Z,13.30
2023-04-17T12:25:49.938Z,13.40
2023-04-17T12:28:22.886Z,13.30
2023-04-17T12:30:53.602Z,13.20
2023-04-17T12:33:24.015Z,13.20
2023-04-17T12:35:54.542Z,13.40
2023-04-17T12:38:25.378Z,13.30
2023-04-17T12:40:55.917Z,13.30
2023-04-17T12:43:29.176Z,13.40
2023-04-17T12:45:59.994Z,13.40
2023-04-17T12:48:32.732Z,13.50
2023-04-17T12:51:03.637Z,13.50
2023-04-17T12:53:34.037Z,13.50
2023-04-17T12:56:04.566Z,13.50
2023-04-17T12:58:37.588Z,13.60
2023-04-17T13:01:08.467Z,13.60
2023-04-17T13:03:39.233Z,13.70
2023-04-17T13:06:10.693Z,13.70
2023-04-17T13:08:41.087Z,13.80
2023-04-17T13:11:11.762Z,13.80
2023-04-17T13:13:44.844Z,13.80
2023-04-17T13:16:15.386Z,13.80
2023-04-17T13:18:45.828Z,13.70
2023-04-17T13:21:16.437Z,13.70
2023-04-17T13:23:46.984Z,13.80
2023-04-17T13:26:17.444Z,13.70
2023-04-17T13:28:50.464Z,13.80
2023-04-17T13:31:21.305Z,13.80
2023-04-17T13:33:51.841Z,13.90
2023-04-17T13:36:22.192Z,13.90
2023-04-17T13:38:52.852Z,13.90
2023-04-17T13:41:23.347Z,13.90
2023-04-17T13:43:57.016Z,13.90
2023-04-17T13:46:27.745Z,13.90
2023-04-17T13:48:58.496Z,13.90
2023-04-17T13:51:29.879Z,13.90
2023-04-17T13:54:01.596Z,14.10
2023-04-17T13:56:32.390Z,14.20
2023-04-17T13:59:06.809Z,14.40
2023-04-17T14:01:37.926Z,14.60
2023-04-17T14:04:08.711Z,14.60
2023-04-17T14:06:39.316Z,14.60
2023-04-17T14:09:09.991Z,14.70
2023-04-17T14:11:41.355Z,14.80
2023-04-17T14:14:14.483Z,15.10
2023-04-17T14:16:46.494Z,14.90
2023-04-17T14:19:17.471Z,14.90
2023-04-17T14:21:48.757Z,15.10
2023-04-17T14:24:19.842Z,15.30
2023-04-17T14:26:51.213Z,15.20
2023-04-17T14:29:24.983Z,15.20
2023-04-17T14:31:56.230Z,15.20
2023-04-17T14:34:26.767Z,15.10
2023-04-17T14:36:58.271Z,15.00
2023-04-17T14:39:31.303Z,15.20
2023-04-17T14:42:02.440Z,15.40
2023-04-17T14:44:35.658Z,15.30
2023-04-17T14:47:06.314Z,15.20
2023-04-17T14:49:36.805Z,15.40
2023-04-17T14:52:07.446Z,15.60
2023-04-17T14:54:38.037Z,15.80
2023-04-17T14:57:08.785Z,16.00
2023-04-17T14:59:43.836Z,15.90
2023-04-17T15:02:14.297Z,16.00
2023-04-17T15:04:45.649Z,16.10
2023-04-17T15:07:16.179Z,16.30
2023-04-17T15:09:47.237Z,16.40
2023-04-17T15:12:17.795Z,16.50
2023-04-17T15:14:50.818Z,16.60
2023-04-17T15:17:21.425Z,16.40
2023-04-17T15:19:52.484Z,16.40
2023-04-17T15:22:23.157Z,16.40
2023-04-17T15:24:53.848Z,16.50
2023-04-17T15:27:24.372Z,16.60
2023-04-17T15:29:57.464Z,16.60
2023-04-17T15:32:28.001Z,16.80
2023-04-17T15:34:58.438Z,16.60
2023-04-17T15:37:29.816Z,16.50
2023-04-17T15:40:00.595Z,16.30
2023-04-17T15:42:32.360Z,16.20
2023-04-17T15:45:05.747Z,16.10
2023-04-17T15:47:36.290Z,16.00
2023-04-17T15:50:07.069Z,15.90
2023-04-17T15:52:37.751Z,15.90
2023-04-17T15:55:09.000Z,15.90
2023-04-17T15:57:41.096Z,15.80
2023-04-17T16:00:17.086Z,15.80
2023-04-17T16:02:48.313Z,15.90
2023-04-17T16:05:19.158Z,16.20
2023-04-17T16:07:51.939Z,16.40
2023-04-17T16:10:22.338Z,16.30
2023-04-17T16:12:55.830Z,16.40
2023-04-17T16:15:28.866Z,16.40
2023-04-17T16:17:59.279Z,16.50
2023-04-17T16:20:30.921Z,16.60
2023-04-17T16:23:01.376Z,16.80
2023-04-17T16:25:31.787Z,16.80
2023-04-17T16:28:02.312Z,16.80
2023-04-17T16:30:35.511Z,17.00
2023-04-17T16:33:05.997Z,17.00
2023-04-17T16:35:36.692Z,17.20
2023-04-17T16:38:07.242Z,17.40
2023-04-17T16:40:37.685Z,17.40
2023-04-17T16:43:09.247Z,17.50
2023-04-17T16:45:44.981Z,17.50
2023-04-17T16:48:15.457Z,17.30
2023-04-17T16:50:45.988Z,17.20
2023-04-17T16:53:16.470Z,17.50
2023-04-17T16:55:48.431Z,17.40
2023-04-17T16:58:18.958Z,17.40
2023-04-17T17:00:52.114Z,17.40
2023-04-17T17:03:22.590Z,17.40
2023-04-17T17:05:53.225Z,17.50
2023-04-17T17:08:23.603Z,17.50
2023-04-17T17:10:54.510Z,17.50
2023-04-17T17:13:25.120Z,17.50
2023-04-17T17:15:58.293Z,17.30
2023-04-17T17:18:28.784Z,17.20
2023-04-17T17:21:00.410Z,17.30
2023-04-17T17:23:30.872Z,17.30
2023-04-17T17:26:01.323Z,17.20
2023-04-17T17:28:31.778Z,17.10
2023-04-17T17:31:07.581Z,17.10
2023-04-17T17:33:38.958Z,17.00
2023-04-17T17:36:11.860Z,17.00
2023-04-17T17:38:42.253Z,17.00
2023-04-17T17:41:12.700Z,17.10
2023-04-17T17:43:43.331Z,16.90
2023-04-17T17:46:16.337Z,17.00
2023-04-17T17:48:46.738Z,17.00
2023-04-17T17:51:17.065Z,17.40
2023-04-17T17:53:47.499Z,17.60
2023-04-17T17:56:17.888Z,17.70
2023-04-17T17:58:48.304Z,17.80
2023-04-17T18:01:22.965Z,17.70
2023-04-17T18:03:53.783Z,17.70
2023-04-17T18:06:24.404Z,17.60
2023-04-17T18:08:55.828Z,17.80
2023-04-17T18:11:26.211Z,17.90
2023-04-17T18:13:56.659Z,17.30
2023-04-17T18:16:31.771Z,17.10
2023-04-17T18:19:04.975Z,16.90
2023-04-17T18:21:35.439Z,16.80
2023-04-17T18:24:05.976Z,16.80
2023-04-17T18:26:36.474Z,16.70
2023-04-17T18:29:06.952Z,16.80
2023-04-17T18:31:40.042Z,16.70
2023-04-17T18:34:10.647Z,16.60
2023-04-17T18:36:41.121Z,16.50
2023-04-17T18:39:12.316Z,16.30
2023-04-17T18:41:42.732Z,16.30
2023-04-17T18:44:13.201Z,16.20
2023-04-17T18:46:46.606Z,16.10
2023-04-17T18:49:17.374Z,16.20
2023-04-17T18:51:48.407Z,16.10
2023-04-17T18:54:19.629Z,16.00
2023-04-17T18:56:50.112Z,16.10
2023-04-17T18:59:21.578Z,16.00
2023-04-17T19:01:54.782Z,15.90
2023-04-17T19:04:25.237Z,15.90
2023-04-17T19:06:55.985Z,15.90
2023-04-17T19:09:26.452Z,15.90
2023-04-17T19:11:57.769Z,15.80
2023-04-17T19:14:28.746Z,15.80
2023-04-17T19:17:01.931Z,15.80
2023-04-17T19:19:32.430Z,15.70
2023-04-17T19:22:02.889Z,15.70
2023-04-17T19:24:33.273Z,15.60
2023-04-17T19:27:03.953Z,15.60
2023-04-17T19:29:34.434Z,15.60
2023-04-17T19:32:08.917Z,15.60
2023-04-17T19:34:39.449Z,15.50
2023-04-17T19:37:09.838Z,15.50
2023-04-17T19:39:40.227Z,15.40
2023-04-17T19:42:10.669Z,15.30
2023-04-17T19:44:41.033Z,15.30
2023-04-17T19:47:14.152Z,15.20
2023-04-17T19:49:45.065Z,15.20
2023-04-17T19:52:15.773Z,15.20
2023-04-17T19:54:46.716Z,15.10
2023-04-17T19:57:17.351Z,15.10
2023-04-17T19:59:47.757Z,14.90
2023-04-17T20:02:21.660Z,14.90
2023-04-17T20:04:52.480Z,14.90
2023-04-17T20:07:22.869Z,14.90
2023-04-17T20:09:53.572Z,14.90
2023-04-17T20:12:24.077Z,14.80
2023-04-17T20:14:54.486Z,14.70
2023-04-17T20:17:27.464Z,14.70
2023-04-17T20:19:57.894Z,14.60
2023-04-17T20:22:28.782Z,14.60
2023-04-17T20:24:59.185Z,14.50
2023-04-17T20:27:29.614Z,14.50
2023-04-17T20:29:59.995Z,14.40
2023-04-17T20:32:33.078Z,14.40
2023-04-17T20:35:03.501Z,14.30
2023-04-17T20:37:33.913Z,14.30
2023-04-17T20:40:06.162Z,14.20
2023-04-17T20:42:36.607Z,14.20
2023-04-17T20:45:09.836Z,14.20
2023-04-17T20:47:55.429Z,14.20
2023-04-17T20:50:27.036Z,14.10
2023-04-17T20:52:57.440Z,14.10
2023-04-17T20:55:27.907Z,14.10
2023-04-17T20:57:58.250Z,14.10
2023-04-17T21:00:28.843Z,14.00
2023-04-17T21:03:02.020Z,14.00
2023-04-17T21:05:32.546Z,14.00
2023-04-17T21:08:08.629Z,14.00
2023-04-17T21:10:38.991Z,13.90
2023-04-17T21:13:09.381Z,14.00
2023-04-17T21:15:39.715Z,14.00
2023-04-17T21:18:12.695Z,14.00
2023-04-17T21:20:43.065Z,14.00
2023-04-17T21:23:14.245Z,14.00
2023-04-17T21:25:44.655Z,13.90
2023-04-17T21:28:15.002Z,13.90
2023-04-17T21:30:45.410Z,14.00
2023-04-17T21:33:18.481Z,13.90
2023-04-17T21:35:48.957Z,13.90
2023-04-17T21:38:19.385Z,13.80
2023-04-17T21:40:51.982Z,13.80
2023-04-17T21:43:22.358Z,13.80
2023-04-17T21:45:52.925Z,13.80
2023-04-17T21:48:26.146Z,13.70
2023-04-17T21:51:04.505Z,13.60
2023-04-17T21:53:37.064Z,13.60
2023-04-17T21:56:07.952Z,13.50
2023-04-17T21:58:38.429Z,13.50
2023-04-17T22:01:09.036Z,13.50
2023-04-17T22:03:42.460Z,13.40
2023-04-17T22:06:13.080Z,13.40
2023-04-17T22:08:43.476Z,13.30
2023-04-17T22:11:14.046Z,13.40
2023-04-17T22:13:45.234Z,13.30
2023-04-17T22:16:16.066Z,13.20
2023-04-17T22:18:49.138Z,13.20
2023-04-17T22:21:19.558Z,13.20
2023-04-17T22:23:50.007Z,13.20
2023-04-17T22:26:20.475Z,13.10
2023-04-17T22:28:50.891Z,13.10
2023-04-17T22:31:21.340Z,13.20
2023-04-17T22:33:54.466Z,13.10
2023-04-17T22:36:24.967Z,13.00
2023-04-17T22:38:55.397Z,13.00
2023-04-17T22:41:25.844Z,13.00
2023-04-17T22:43:56.220Z,12.90
2023-04-17T22:46:26.761Z,12.90
2023-04-17T22:49:00.899Z,12.90
2023-04-17T22:51:31.500Z,12.80
2023-04-17T22:54:11.503Z,12.90
2023-04-17T22:56:46.008Z,12.80
2023-04-17T22:59:16.358Z,12.80
2023-04-17T23:01:46.814Z,12.70
2023-04-17T23:04:19.864Z,12.70
2023-04-17T23:06:50.302Z,12.70
2023-04-17T23:09:20.797Z,12.70
2023-04-17T23:11:51.509Z,12.60
2023-04-17T23:14:21.930Z,12.60
2023-04-17T23:16:53.178Z,12.60
2023-04-17T23:19:26.215Z,12.60
2023-04-17T23:21:56.568Z,12.60
2023-04-17T23:24:26.931Z,12.50
2023-04-17T23:26:57.841Z,12.50
2023-04-17T23:29:28.434Z,12.50
2023-04-17T23:31:58.833Z,12.40
2023-04-17T23:34:32.048Z,12.40
2023-04-17T23:37:02.551Z,12.40
2023-04-17T23:39:33.046Z,12.40
2023-04-17T23:42:07.354Z,12.40
2023-04-17T23:44:37.767Z,12.40
2023-04-17T23:47:08.324Z,12.40
2023-04-17T23:49:41.294Z,12.40
2023-04-17T23:52:11.914Z,12.30
2023-04-17T23:54:42.461Z,12.30
2023-04-17T23:57:12.923Z,12.30
2023-04-17T23:59:43.232Z,12.20
